Time;durP1;ratioP1;P1;durP2;ratioP2;P2;SDS_P1;SDS_P2;PMS_P1;PMS_P2;Temp;Humidity;BMP_temperature;BMP_pressure;BME280_temperature;BME280_humidity;BME280_pressure;Samples;Min_cycle;Max_cycle;Signal;HPM_P1;HPM_P2
2022/07/23 00:00:32;;;;;;;6.07;2.60;;;14.40;99.90;;;;;;5031844;28;20033;-90
2022/07/23 00:02:57;;;;;;;7.65;2.63;;;14.40;99.90;;;;;;5056582;28;20024;-90
2022/07/23 00:05:23;;;;;;;5.03;2.08;;;14.30;99.90;;;;;;5051817;28;20036;-90
2022/07/23 00:07:49;;;;;;;8.10;2.38;;;14.30;99.90;;;;;;5051083;28;20035;-90
2022/07/23 00:10:14;;;;;;;3.55;2.60;;;14.20;99.90;;;;;;5062178;28;20049;-91
2022/07/23 00:12:40;;;;;;;3.50;2.75;;;14.20;99.90;;;;;;5066315;28;20040;-90
2022/07/23 00:15:07;;;;;;;10.90;4.20;;;14.10;99.90;;;;;;5035218;28;20045;-90
2022/07/23 00:17:32;;;;;;;4.90;2.50;;;14.10;99.90;;;;;;5056659;28;20115;-91
2022/07/23 00:19:58;;;;;;;5.82;2.78;;;14.00;99.90;;;;;;5052494;28;20116;-90
2022/07/23 00:22:24;;;;;;;3.10;2.35;;;13.90;99.90;;;;;;5055115;28;20135;-90
2022/07/23 00:24:49;;;;;;;4.63;1.77;;;13.90;99.90;;;;;;5035513;28;20093;-90
2022/07/23 00:27:15;;;;;;;3.65;2.13;;;13.80;99.90;;;;;;5050977;28;20542;-90
2022/07/23 00:29:41;;;;;;;2.35;2.15;;;13.80;99.90;;;;;;5052873;28;20123;-91
2022/07/23 00:32:06;;;;;;;7.38;2.05;;;13.70;99.90;;;;;;5054320;28;20572;-91
2022/07/23 00:34:32;;;;;;;2.60;2.40;;;13.60;99.90;;;;;;5053591;28;20048;-91
2022/07/23 00:36:58;;;;;;;7.32;2.47;;;13.60;99.90;;;;;;5035503;28;20494;-91
2022/07/23 00:39:23;;;;;;;5.18;2.75;;;13.50;99.90;;;;;;5068854;28;20045;-90
2022/07/23 00:41:50;;;;;;;3.72;2.63;;;13.40;99.90;;;;;;5069572;28;20036;-91
2022/07/23 00:44:24;;;;;;;6.78;3.05;;;13.50;99.90;;;;;;5036669;28;20037;-90
2022/07/23 00:46:53;;;;;;;6.90;2.95;;;13.50;99.90;;;;;;5043616;28;20040;-91
2022/07/23 00:49:24;;;;;;;8.07;3.25;;;13.50;99.90;;;;;;5034614;28;20051;-90
2022/07/23 00:51:50;;;;;;;3.30;2.90;;;13.50;99.90;;;;;;5064053;28;20171;-90
2022/07/23 00:54:18;;;;;;;3.95;2.60;;;13.50;99.90;;;;;;5037032;28;20181;-91
2022/07/23 00:56:45;;;;;;;1.83;1.73;;;13.40;99.90;;;;;;5037254;28;20033;-91
2022/07/23 00:59:11;;;;;;;3.78;2.55;;;13.40;99.90;;;;;;5062011;28;20041;-91
2022/07/23 01:01:37;;;;;;;2.45;2.13;;;13.40;99.90;;;;;;5048773;28;20035;-91
2022/07/23 01:04:03;;;;;;;4.32;1.77;;;13.60;99.90;;;;;;5065993;28;20055;-91
2022/07/23 01:06:30;;;;;;;2.72;2.10;;;13.20;99.90;;;;;;5071573;28;20032;-92
2022/07/23 01:08:56;;;;;;;3.33;3.00;;;13.50;99.90;;;;;;5054193;28;20055;-91
2022/07/23 01:11:23;;;;;;;4.72;2.35;;;13.10;99.90;;;;;;5055651;28;20044;-91
2022/07/23 01:13:49;;;;;;;5.03;1.92;;;13.10;99.90;;;;;;5050032;28;20040;-92
2022/07/23 01:16:15;;;;;;;4.82;1.88;;;13.00;99.90;;;;;;5053266;28;20514;-91
2022/07/23 01:18:40;;;;;;;5.07;2.80;;;13.00;99.90;;;;;;5044706;28;20039;-91
2022/07/23 01:21:06;;;;;;;3.10;2.75;;;13.00;99.90;;;;;;5054895;28;20036;-91
2022/07/23 01:23:32;;;;;;;2.50;1.85;;;12.90;99.90;;;;;;5029940;28;20041;-91
2022/07/23 01:25:57;;;;;;;1.00;0.82;;;12.90;99.90;;;;;;5071459;28;20044;-91
2022/07/23 01:28:23;;;;;;;2.55;1.70;;;12.80;99.90;;;;;;5050307;28;20425;-90
2022/07/23 01:30:49;;;;;;;3.28;2.00;;;12.80;99.90;;;;;;5061535;28;20025;-91
2022/07/23 01:33:15;;;;;;;2.58;2.13;;;12.70;99.90;;;;;;5070364;28;20032;-91
2022/07/23 01:35:40;;;;;;;3.22;2.10;;;12.70;99.90;;;;;;5051532;28;20072;-90
2022/07/23 01:38:06;;;;;;;3.25;2.33;;;12.70;99.90;;;;;;5036893;28;20119;-90
2022/07/23 01:40:32;;;;;;;3.92;2.58;;;12.60;99.90;;;;;;5032917;28;20040;-90
2022/07/23 01:42:58;;;;;;;3.83;2.70;;;13.10;99.90;;;;;;5033295;28;20060;-90
2022/07/23 01:45:23;;;;;;;3.65;2.83;;;12.60;99.90;;;;;;5035692;28;20032;-90
2022/07/23 01:47:49;;;;;;;3.30;2.90;;;12.60;99.90;;;;;;5050547;28;20039;-90
2022/07/23 01:50:15;;;;;;;2.60;2.40;;;12.50;99.90;;;;;;5049003;28;20102;-91
2022/07/23 01:52:41;;;;;;;3.00;2.20;;;12.60;99.90;;;;;;5053751;28;20036;-91
2022/07/23 01:55:07;;;;;;;2.03;1.93;;;12.50;99.90;;;;;;4997216;28;1073631;-90
2022/07/23 01:57:33;;;;;;;2.70;2.10;;;12.50;99.90;;;;;;5044798;28;20534;-91
2022/07/23 01:59:59;;;;;;;5.50;2.60;;;12.40;99.90;;;;;;5053661;28;20482;-91
2022/07/23 02:02:24;;;;;;;7.20;3.58;;;12.40;99.90;;;;;;5050855;28;20090;-91
2022/07/23 02:04:50;;;;;;;4.50;3.65;;;12.40;99.90;;;;;;5038875;28;20391;-91
2022/07/23 02:07:16;;;;;;;3.22;2.47;;;12.40;99.90;;;;;;5042939;28;20044;-91
2022/07/23 02:09:42;;;;;;;4.45;2.58;;;12.50;99.90;;;;;;5064955;28;20059;-92
2022/07/23 02:12:07;;;;;;;5.32;2.13;;;12.50;99.90;;;;;;5030292;28;20119;-91
2022/07/23 02:14:33;;;;;;;2.90;1.98;;;12.50;99.90;;;;;;5043481;28;20128;-90
2022/07/23 02:16:59;;;;;;;6.20;2.08;;;12.50;99.90;;;;;;5052312;28;20036;-91
2022/07/23 02:19:25;;;;;;;5.57;2.90;;;12.40;99.90;;;;;;5035768;28;20052;-90
2022/07/23 02:21:51;;;;;;;2.38;2.00;;;12.40;99.90;;;;;;5062842;28;20062;-91
2022/07/23 02:24:17;;;;;;;2.92;2.72;;;12.40;99.90;;;;;;5053059;28;20549;-91
2022/07/23 02:26:42;;;;;;;4.80;3.40;;;12.40;99.90;;;;;;5033489;28;20040;-92
2022/07/23 02:29:09;;;;;;;3.25;2.95;;;12.40;99.90;;;;;;5055944;28;20047;-92
2022/07/23 02:31:34;;;;;;;4.43;3.05;;;12.40;99.90;;;;;;5030987;28;20131;-92
2022/07/23 02:34:01;;;;;;;7.63;3.47;;;12.50;99.90;;;;;;5063297;28;20128;-91
2022/07/23 02:36:27;;;;;;;3.92;3.22;;;12.50;99.90;;;;;;5061320;28;20037;-92
2022/07/23 02:38:53;;;;;;;4.00;3.17;;;12.50;99.90;;;;;;5030349;28;20078;-92
2022/07/23 02:41:19;;;;;;;6.78;4.47;;;12.70;99.90;;;;;;5061362;28;20407;-91
2022/07/23 02:43:44;;;;;;;4.75;3.30;;;12.60;99.90;;;;;;5052917;28;20176;-91
2022/07/23 02:46:10;;;;;;;3.65;2.72;;;12.50;99.90;;;;;;5055026;28;20039;-90
2022/07/23 02:48:36;;;;;;;3.83;2.83;;;12.50;99.90;;;;;;5036925;28;20047;-90
2022/07/23 02:51:01;;;;;;;4.50;3.00;;;12.60;99.90;;;;;;5052277;28;20094;-90
2022/07/23 02:53:27;;;;;;;3.67;3.15;;;12.60;99.90;;;;;;5052043;28;20131;-90
2022/07/23 02:55:52;;;;;;;3.05;2.00;;;12.60;99.90;;;;;;5061816;28;20037;-90
2022/07/23 02:58:18;;;;;;;2.67;2.20;;;12.50;99.90;;;;;;5048908;28;20058;-91
2022/07/23 03:00:43;;;;;;;4.22;2.13;;;12.50;99.90;;;;;;5063649;28;20033;-90
2022/07/23 03:03:09;;;;;;;3.38;2.20;;;12.40;99.90;;;;;;5038670;28;20037;-90
2022/07/23 03:05:35;;;;;;;2.83;2.38;;;12.30;99.90;;;;;;5052020;28;20459;-91
2022/07/23 03:08:01;;;;;;;6.28;2.58;;;12.20;99.90;;;;;;5068025;28;20037;-91
2022/07/23 03:10:26;;;;;;;2.25;2.05;;;12.20;99.90;;;;;;5063025;28;20044;-91
2022/07/23 03:12:52;;;;;;;3.00;2.28;;;12.20;99.90;;;;;;5032527;28;20142;-91
2022/07/23 03:15:18;;;;;;;3.17;2.30;;;12.10;99.90;;;;;;5052617;28;20074;-89
2022/07/23 03:17:44;;;;;;;2.47;0.93;;;12.00;99.90;;;;;;5045603;28;20052;-91
2022/07/23 03:20:10;;;;;;;1.23;1.10;;;12.00;99.90;;;;;;5054066;28;20044;-90
2022/07/23 03:22:36;;;;;;;3.88;1.50;;;11.90;99.90;;;;;;5054637;28;20039;-92
2022/07/23 03:25:02;;;;;;;2.35;1.38;;;12.20;99.90;;;;;;5043159;28;20060;-91
2022/07/23 03:27:29;;;;;;;4.75;1.58;;;11.80;99.90;;;;;;5045420;28;20037;-91
2022/07/23 03:29:57;;;;;;;5.78;1.67;;;11.80;99.90;;;;;;5051837;28;20040;-91
2022/07/23 03:32:23;;;;;;;5.65;2.10;;;11.70;99.90;;;;;;5070455;28;20415;-92
2022/07/23 03:34:49;;;;;;;2.65;1.98;;;11.90;99.90;;;;;;5070767;28;20051;-91
2022/07/23 03:37:16;;;;;;;4.45;1.65;;;11.60;99.90;;;;;;5052173;28;20049;-91
2022/07/23 03:39:42;;;;;;;1.13;1.00;;;11.70;99.90;;;;;;5048696;28;20135;-91
2022/07/23 03:42:08;;;;;;;2.28;2.08;;;11.60;99.90;;;;;;5036395;28;20491;-91
2022/07/23 03:44:34;;;;;;;9.75;1.83;;;11.60;99.90;;;;;;5038172;28;20036;-91
2022/07/23 03:46:59;;;;;;;3.88;2.05;;;11.60;99.90;;;;;;5068874;28;20059;-91
2022/07/23 03:49:25;;;;;;;5.05;2.05;;;11.60;99.90;;;;;;5039125;28;20482;-91
2022/07/23 03:51:51;;;;;;;5.20;2.05;;;11.60;99.90;;;;;;5022158;28;20372;-90
2022/07/23 03:54:17;;;;;;;3.42;2.30;;;11.50;99.90;;;;;;5036776;28;20036;-90
2022/07/23 03:56:42;;;;;;;6.18;2.40;;;11.60;99.90;;;;;;5066324;28;20041;-91
2022/07/23 03:59:08;;;;;;;2.78;2.20;;;11.90;99.90;;;;;;5050993;28;20094;-91
2022/07/23 04:01:34;;;;;;;2.22;1.80;;;11.50;99.90;;;;;;5049115;28;20127;-90
2022/07/23 04:04:00;;;;;;;4.63;2.03;;;11.60;99.90;;;;;;5045868;28;20037;-90
2022/07/23 04:06:26;;;;;;;4.80;1.80;;;11.70;99.90;;;;;;5071472;28;20039;-88
2022/07/23 04:08:52;;;;;;;2.95;1.73;;;11.70;99.90;;;;;;5037531;28;20429;-89
2022/07/23 04:11:17;;;;;;;3.22;1.10;;;11.80;99.90;;;;;;5053656;28;20520;-90
2022/07/23 04:13:43;;;;;;;5.03;1.10;;;12.00;99.90;;;;;;5037409;28;20036;-90
2022/07/23 04:16:09;;;;;;;5.05;0.68;;;12.50;99.90;;;;;;5053016;28;20117;-90
2022/07/23 04:18:34;;;;;;;2.90;0.60;;;13.20;99.90;;;;;;5049590;28;20080;-90
2022/07/23 04:21:00;;;;;;;3.03;0.70;;;14.00;99.90;;;;;;5032880;28;20040;-89
2022/07/23 04:23:26;;;;;;;0.77;0.52;;;14.80;99.90;;;;;;5054791;28;20041;-89
2022/07/23 04:25:51;;;;;;;1.55;0.57;;;15.40;99.90;;;;;;5055280;28;20033;-90
2022/07/23 04:28:17;;;;;;;1.25;0.60;;;16.00;99.90;;;;;;5054719;28;20067;-89
2022/07/23 04:30:43;;;;;;;1.95;0.50;;;16.70;99.90;;;;;;5067278;28;20037;-90
2022/07/23 04:33:08;;;;;;;1.55;0.60;;;17.70;99.90;;;;;;5070955;28;20482;-90
2022/07/23 04:35:34;;;;;;;1.33;0.60;;;18.60;99.90;;;;;;5047204;28;20043;-90
2022/07/23 04:38:00;;;;;;;1.10;0.60;;;18.80;99.90;;;;;;5033459;28;20122;-90
2022/07/23 04:40:27;;;;;;;1.67;0.98;;;19.20;99.90;;;;;;5049676;28;20076;-90
2022/07/23 04:42:53;;;;;;;2.80;0.70;;;19.70;99.90;;;;;;5064623;28;20044;-90
2022/07/23 04:45:18;;;;;;;1.98;0.70;;;20.20;99.90;;;;;;5067719;28;20032;-91
2022/07/23 04:47:44;;;;;;;2.60;0.77;;;18.90;99.90;;;;;;5042159;28;20041;-92
2022/07/23 04:50:10;;;;;;;5.22;1.13;;;18.70;99.90;;;;;;5067573;28;20131;-91
2022/07/23 04:52:35;;;;;;;3.30;1.50;;;18.10;99.90;;;;;;5051304;28;20044;-90
2022/07/23 04:55:01;;;;;;;5.07;1.45;;;17.20;99.90;;;;;;5042015;28;20478;-90
2022/07/23 04:57:27;;;;;;;7.03;2.25;;;17.40;99.90;;;;;;5053445;28;20044;-90
2022/07/23 04:59:53;;;;;;;7.43;1.80;;;16.60;99.90;;;;;;5061989;28;20041;-90
2022/07/23 05:02:18;;;;;;;5.50;2.15;;;16.40;99.90;;;;;;5038492;28;20043;-89
2022/07/23 05:04:44;;;;;;;4.68;2.00;;;16.20;99.90;;;;;;5074076;28;20058;-90
2022/07/23 05:07:09;;;;;;;3.47;2.08;;;16.10;99.90;;;;;;5069346;28;20048;-90
2022/07/23 05:09:35;;;;;;;4.55;2.47;;;16.00;99.90;;;;;;5049090;28;20098;-90
2022/07/23 05:12:01;;;;;;;7.07;2.95;;;15.90;99.90;;;;;;5035288;28;20028;-90
2022/07/23 05:14:27;;;;;;;7.20;2.97;;;15.70;99.90;;;;;;5030650;28;20569;-90
2022/07/23 05:16:53;;;;;;;4.32;2.47;;;15.60;99.90;;;;;;5069269;28;20040;-90
2022/07/23 05:19:18;;;;;;;4.47;2.60;;;15.50;99.90;;;;;;5055339;28;20186;-90
2022/07/23 05:21:44;;;;;;;4.18;2.42;;;15.40;99.90;;;;;;5055049;28;20031;-91
2022/07/23 05:24:10;;;;;;;3.33;2.47;;;15.80;99.90;;;;;;5035731;28;20572;-89
2022/07/23 05:26:35;;;;;;;3.15;2.10;;;17.00;99.90;;;;;;5050131;28;20032;-91
2022/07/23 05:29:01;;;;;;;2.58;1.80;;;18.80;99.90;;;;;;5049319;28;20036;-90
2022/07/23 05:31:27;;;;;;;6.32;1.92;;;20.50;99.90;;;;;;5069005;28;20139;-91
2022/07/23 05:33:52;;;;;;;2.80;1.17;;;21.90;99.90;;;;;;5070710;28;20546;-90
2022/07/23 05:36:18;;;;;;;4.85;2.00;;;23.30;99.90;;;;;;5048643;28;20087;-91
2022/07/23 05:38:43;;;;;;;2.55;1.23;;;24.50;99.90;;;;;;5049501;28;20039;-90
2022/07/23 05:41:09;;;;;;;7.25;1.30;;;25.80;99.90;;;;;;5054605;28;20044;-91
2022/07/23 05:43:35;;;;;;;3.38;1.35;;;26.50;99.90;;;;;;5052223;28;20413;-91
2022/07/23 05:46:00;;;;;;;4.13;1.27;;;27.20;99.90;;;;;;5056555;28;20032;-90
2022/07/23 05:48:26;;;;;;;3.08;0.80;;;27.80;99.90;;;;;;5030681;28;20079;-90
2022/07/23 05:50:52;;;;;;;2.65;0.80;;;28.50;99.90;;;;;;5069802;28;20039;-90
2022/07/23 05:53:17;;;;;;;3.00;1.13;;;28.60;99.90;;;;;;5049873;28;20121;-91
2022/07/23 05:55:43;;;;;;;3.00;1.20;;;28.50;99.90;;;;;;5047778;28;20064;-91
2022/07/23 05:58:09;;;;;;;4.60;0.80;;;27.70;99.90;;;;;;5048402;28;20050;-90
2022/07/23 06:00:34;;;;;;;3.75;0.98;;;26.70;99.90;;;;;;5032700;28;20040;-91
2022/07/23 06:03:00;;;;;;;4.38;0.60;;;26.00;99.90;;;;;;5045844;28;20035;-90
2022/07/23 06:05:26;;;;;;;2.80;0.98;;;25.40;99.90;;;;;;5048136;28;20475;-91
2022/07/23 06:07:52;;;;;;;1.75;0.70;;;24.80;99.90;;;;;;5065092;28;20041;-92
2022/07/23 06:10:18;;;;;;;2.63;0.80;;;24.70;99.90;;;;;;5034266;28;20876;-90
2022/07/23 06:12:44;;;;;;;2.90;0.75;;;24.10;99.90;;;;;;5049098;28;20032;-92
2022/07/23 06:15:11;;;;;;;1.90;0.90;;;23.80;99.90;;;;;;5032752;28;20048;-92
2022/07/23 06:17:39;;;;;;;2.05;0.50;;;23.60;99.90;;;;;;5045811;28;20041;-93
2022/07/23 06:20:07;;;;;;;3.78;0.60;;;23.50;99.90;;;;;;5048426;28;20047;-91
2022/07/23 06:22:33;;;;;;;2.85;0.95;;;23.50;99.90;;;;;;5031195;28;20043;-93
2022/07/23 06:24:58;;;;;;;2.90;0.63;;;23.60;99.90;;;;;;5055122;28;20037;-94
2022/07/23 06:27:24;;;;;;;1.35;0.50;;;23.60;99.90;;;;;;5032815;28;20075;-92
2022/07/23 06:29:49;;;;;;;0.90;0.38;;;23.60;99.90;;;;;;5051923;28;20376;-92
2022/07/23 06:32:15;;;;;;;4.05;0.77;;;23.80;99.90;;;;;;5037669;28;20041;-93
2022/07/23 06:34:41;;;;;;;2.70;0.50;;;23.60;99.90;;;;;;5051446;28;20048;-93
2022/07/23 06:37:06;;;;;;;4.80;0.90;;;24.10;99.90;;;;;;5037090;28;20040;-91
2022/07/23 06:39:32;;;;;;;2.42;0.40;;;23.90;99.90;;;;;;5032772;28;20116;-92
2022/07/23 06:41:58;;;;;;;2.10;0.52;;;23.90;99.90;;;;;;5051589;28;20124;-90
2022/07/23 06:44:23;;;;;;;3.20;1.00;;;23.90;99.90;;;;;;5050108;28;20189;-93
2022/07/23 06:46:49;;;;;;;6.65;0.60;;;24.10;99.90;;;;;;5053259;28;20040;-90
2022/07/23 06:49:15;;;;;;;1.88;0.52;;;24.60;99.90;;;;;;5052076;28;20461;-92
2022/07/23 06:51:40;;;;;;;1.17;0.50;;;24.10;99.90;;;;;;5034603;28;20093;-91
2022/07/23 06:54:06;;;;;;;5.53;0.40;;;24.20;99.90;;;;;;5031514;28;20037;-91
2022/07/23 06:56:32;;;;;;;5.07;0.30;;;24.30;99.90;;;;;;5035272;28;20041;-92
2022/07/23 06:58:57;;;;;;;3.05;0.30;;;24.20;99.90;;;;;;5068443;28;20043;-92
2022/07/23 07:01:23;;;;;;;1.50;0.47;;;24.30;99.90;;;;;;5037421;28;20488;-92
2022/07/23 07:03:49;;;;;;;2.20;0.47;;;24.50;99.90;;;;;;5044326;28;20068;-89
2022/07/23 07:06:14;;;;;;;0.90;0.30;;;24.50;99.90;;;;;;5065359;28;20085;-88
2022/07/23 07:08:42;;;;;;;1.40;0.20;;;24.50;99.90;;;;;;5038549;28;20060;-95
2022/07/23 07:11:08;;;;;;;1.42;0.30;;;24.50;99.90;;;;;;5034979;28;20455;-93
2022/07/23 07:13:34;;;;;;;1.77;0.30;;;24.50;99.90;;;;;;5030190;28;20048;-94
2022/07/23 07:16:00;;;;;;;2.45;0.35;;;24.50;99.90;;;;;;5069955;28;20542;-94
2022/07/23 07:18:25;;;;;;;2.53;0.32;;;24.50;99.90;;;;;;5062553;28;20050;-93
2022/07/23 07:20:52;;;;;;;3.42;0.47;;;24.40;99.90;;;;;;5072111;28;20037;-95
2022/07/23 07:23:17;;;;;;;3.30;0.22;;;24.30;99.90;;;;;;5037416;28;20090;-93
2022/07/23 07:25:43;;;;;;;2.00;0.40;;;24.10;99.90;;;;;;5044581;28;20040;-94
2022/07/23 07:28:09;;;;;;;1.70;0.38;;;24.10;99.90;;;;;;5038698;28;20045;-93
2022/07/23 07:30:34;;;;;;;2.63;0.32;;;24.50;99.90;;;;;;5054609;28;20044;-92
2022/07/23 07:33:00;;;;;;;1.42;0.28;;;24.10;99.90;;;;;;5038231;28;20409;-94
2022/07/23 07:35:26;;;;;;;1.13;0.45;;;24.40;99.90;;;;;;5054846;28;20048;-92
2022/07/23 07:37:52;;;;;;;3.25;0.47;;;24.50;99.90;;;;;;5039418;28;20032;-92
2022/07/23 07:40:18;;;;;;;0.88;0.40;;;24.50;99.90;;;;;;5052092;28;20498;-94
2022/07/23 07:42:48;;;;;;;7.05;0.30;;;24.20;99.90;;;;;;5034501;28;20084;-93
2022/07/23 07:45:15;;;;;;;1.50;0.30;;;24.00;99.90;;;;;;5037791;28;20032;-93
2022/07/23 07:47:40;;;;;;;0.65;0.20;;;24.00;99.90;;;;;;5034437;28;20041;-94
2022/07/23 07:50:07;;;;;;;1.63;0.13;;;24.10;99.90;;;;;;5037057;28;20056;-94
2022/07/23 07:52:36;;;;;;;4.30;0.47;;;23.30;99.90;;;;;;5056856;28;20382;-94
2022/07/23 07:55:05;;;;;;;0.63;0.30;;;23.40;99.90;;;;;;5038060;28;20381;-93
2022/07/23 07:57:30;;;;;;;1.63;0.22;;;23.50;99.90;;;;;;5058529;28;20182;-94
2022/07/23 07:59:56;;;;;;;1.48;0.30;;;23.50;99.90;;;;;;5035650;28;20103;-86
2022/07/23 08:02:21;;;;;;;2.20;0.20;;;23.50;99.90;;;;;;5034971;28;20037;-88
2022/07/23 08:04:48;;;;;;;1.98;0.20;;;23.60;99.90;;;;;;5071520;28;20090;-87
2022/07/23 08:07:14;;;;;;;1.10;0.20;;;23.40;99.90;;;;;;5052051;28;20052;-87
2022/07/23 08:09:40;;;;;;;2.67;0.20;;;23.50;99.90;;;;;;5070026;28;20033;-87
2022/07/23 08:12:06;;;;;;;0.22;0.20;;;23.80;99.90;;;;;;5043620;28;20084;-87
2022/07/23 08:14:31;;;;;;;0.88;0.20;;;24.00;99.90;;;;;;5071724;28;20052;-87
2022/07/23 08:16:57;;;;;;;0.90;0.20;;;24.10;99.90;;;;;;5050846;28;20041;-87
2022/07/23 08:19:22;;;;;;;0.60;0.20;;;24.40;99.90;;;;;;5070035;28;20445;-87
2022/07/23 08:21:48;;;;;;;1.17;0.30;;;24.70;99.90;;;;;;5071716;28;20060;-87
2022/07/23 08:24:13;;;;;;;0.90;0.20;;;24.80;99.90;;;;;;5065373;28;20040;-87
2022/07/23 08:26:39;;;;;;;0.90;0.25;;;24.80;99.90;;;;;;5069908;28;20028;-87
2022/07/23 08:29:05;;;;;;;0.80;0.20;;;24.90;99.90;;;;;;5052863;28;20132;-87
2022/07/23 08:31:32;;;;;;;1.38;0.10;;;24.80;99.90;;;;;;5058364;28;20483;-87
2022/07/23 08:33:59;;;;;;;1.23;0.20;;;25.00;99.90;;;;;;5055094;28;20044;-87
2022/07/23 08:36:27;;;;;;;0.93;0.30;;;25.20;99.90;;;;;;5055444;28;20089;-87
2022/07/23 08:38:53;;;;;;;0.90;0.17;;;25.20;99.90;;;;;;5054710;28;20070;-87
2022/07/23 08:41:19;;;;;;;0.90;0.30;;;24.80;99.90;;;;;;5039365;28;20491;-87
2022/07/23 08:43:45;;;;;;;0.30;0.10;;;24.60;99.50;;;;;;5045175;28;20041;-87
2022/07/23 08:46:13;;;;;;;0.75;0.20;;;24.50;98.80;;;;;;5068354;28;20039;-87
2022/07/23 08:48:39;;;;;;;0.80;0.20;;;24.90;99.60;;;;;;5070714;28;20044;-87
2022/07/23 08:51:06;;;;;;;0.45;0.20;;;24.60;99.20;;;;;;5048795;28;20049;-87
2022/07/23 08:53:33;;;;;;;1.10;0.38;;;24.50;99.70;;;;;;5068839;28;20376;-87
2022/07/23 08:56:03;;;;;;;0.55;0.20;;;24.50;99.30;;;;;;5070076;28;20029;-87
2022/07/23 08:58:29;;;;;;;0.10;0.10;;;24.30;99.90;;;;;;5047719;28;20394;-87
2022/07/23 09:00:58;;;;;;;1.83;0.38;;;24.10;99.70;;;;;;5049644;28;20032;-87
2022/07/23 09:03:35;;;;;;;2.05;0.22;;;23.90;99.90;;;;;;5064746;28;20428;-87
2022/07/23 09:06:02;;;;;;;0.85;0.10;;;23.60;99.80;;;;;;5070244;28;20087;-87
2022/07/23 09:08:39;;;;;;;0.73;0.20;;;23.40;99.90;;;;;;5066474;28;20149;-87
2022/07/23 09:11:08;;;;;;;0.95;0.20;;;23.50;99.90;;;;;;5053195;28;20110;-87
2022/07/23 09:13:36;;;;;;;0.35;0.20;;;23.90;99.90;;;;;;5052232;28;20062;-87
2022/07/23 09:16:05;;;;;;;0.50;0.20;;;24.10;99.90;;;;;;5048441;28;20037;-87
2022/07/23 09:18:33;;;;;;;0.43;0.10;;;23.90;99.10;;;;;;5054018;28;20123;-87
2022/07/23 09:21:14;;;;;;;3.35;0.30;;;23.90;99.00;;;;;;5047409;28;20037;-87
2022/07/23 09:23:49;;;;;;;1.05;0.20;;;23.90;99.50;;;;;;5049193;28;20041;-88
2022/07/23 09:26:23;;;;;;;;;;;23.80;99.90;;;;;;5068360;28;20498;-88
2022/07/23 09:28:53;;;;;;;0.80;0.30;;;23.60;99.40;;;;;;5053358;28;19923;-87
2022/07/23 09:31:20;;;;;;;0.70;0.17;;;23.60;99.90;;;;;;5063007;28;20040;-87
2022/07/23 09:33:45;;;;;;;0.30;0.20;;;23.40;99.90;;;;;;5068784;28;20051;-87
2022/07/23 09:36:11;;;;;;;3.10;0.38;;;23.40;99.90;;;;;;5053375;28;20135;-87
2022/07/23 09:38:48;;;;;;;0.43;0.20;;;23.30;99.90;;;;;;5068348;28;20068;-88
2022/07/23 09:41:14;;;;;;;2.80;0.25;;;23.60;99.90;;;;;;5062523;28;20475;-88
2022/07/23 09:43:40;;;;;;;0.73;0.30;;;23.80;99.90;;;;;;5052839;28;20041;-87
2022/07/23 09:46:27;;;;;;;0.98;0.35;;;23.80;99.90;;;;;;5066913;28;20516;-87
2022/07/23 09:48:53;;;;;;;3.17;0.40;;;23.60;99.90;;;;;;5048154;28;20040;-87
2022/07/23 09:51:38;;;;;;;2.30;0.30;;;23.60;99.90;;;;;;5067250;28;20495;-87
2022/07/23 09:54:04;;;;;;;0.90;0.20;;;23.50;99.90;;;;;;5068890;28;20087;-87
2022/07/23 09:56:32;;;;;;;0.95;0.30;;;23.80;99.90;;;;;;5047676;28;20372;-87
2022/07/23 09:59:17;;;;;;;2.03;0.20;;;23.90;99.50;;;;;;5062814;28;20063;-88
2022/07/23 10:01:44;;;;;;;2.38;0.38;;;23.90;99.90;;;;;;5068217;28;20052;-87
2022/07/23 10:04:11;;;;;;;2.90;0.32;;;24.00;99.90;;;;;;5070105;28;20032;-87
2022/07/23 10:06:39;;;;;;;1.75;0.17;;;23.60;99.90;;;;;;5046077;28;20047;-88
2022/07/23 10:09:05;;;;;;;2.05;0.50;;;23.50;99.90;;;;;;5068921;28;20097;-88
2022/07/23 10:11:33;;;;;;;1.20;0.20;;;23.50;99.90;;;;;;5065316;28;20822;-87
2022/07/23 10:14:01;;;;;;;1.17;0.40;;;23.60;99.90;;;;;;5063177;28;20044;-87
2022/07/23 10:16:27;;;;;;;1.65;0.30;;;23.50;99.90;;;;;;5063003;28;20511;-87
2022/07/23 10:18:52;;;;;;;0.73;0.20;;;23.80;99.90;;;;;;5063406;28;20090;-87
2022/07/23 10:21:46;;;;;;;4.90;0.30;;;23.90;99.90;;;;;;5047691;28;20483;-88
2022/07/23 10:24:24;;;;;;;1.98;0.30;;;23.80;99.90;;;;;;5020219;28;20134;-87
2022/07/23 10:27:24;;;;;;;0.40;0.20;;;23.70;99.60;;;;;;5071290;28;20086;-87
2022/07/23 10:29:58;;;;;;;1.58;0.30;;;23.70;99.90;;;;;;5009522;28;20506;-87
2022/07/23 10:32:51;;;;;;;1.15;0.45;;;24.10;99.90;;;;;;5054270;28;20052;-87
2022/07/23 10:35:34;;;;;;;1.35;0.30;;;24.20;99.70;;;;;;5066390;28;20062;-88
2022/07/23 10:38:12;;;;;;;2.13;0.30;;;24.10;99.80;;;;;;5055086;28;20111;-87
2022/07/23 10:40:59;;;;;;;1.70;0.35;;;23.80;98.90;;;;;;5068889;28;20075;-88
2022/07/23 10:43:26;;;;;;;1.10;0.30;;;23.80;99.90;;;;;;5043449;28;20083;-88
2022/07/23 10:45:53;;;;;;;1.38;0.38;;;23.90;99.90;;;;;;5052089;28;20074;-87
2022/07/23 10:48:23;;;;;;;1.00;0.30;;;24.00;99.90;;;;;;5052385;28;20474;-88
2022/07/23 10:51:16;;;;;;;0.88;0.20;;;24.10;99.90;;;;;;5047853;28;20048;-87
2022/07/23 10:53:51;;;;;;;3.05;0.35;;;24.00;99.90;;;;;;5056354;28;20047;-88
2022/07/23 10:56:57;;;;;;;2.83;0.40;;;24.00;99.90;;;;;;5051557;28;20067;-87
2022/07/23 10:59:22;;;;;;;1.00;0.38;;;24.00;99.90;;;;;;5051065;28;20125;-88
2022/07/23 11:01:49;;;;;;;1.92;0.50;;;24.10;99.90;;;;;;5050381;28;20629;-88
2022/07/23 11:04:15;;;;;;;3.80;0.60;;;24.40;99.90;;;;;;5056937;28;20250;-88
2022/07/23 11:06:50;;;;;;;1.33;0.30;;;24.40;99.90;;;;;;5047402;28;20098;-87
2022/07/23 11:09:27;;;;;;;0.60;0.40;;;24.40;99.30;;;;;;5050037;28;20048;-88
2022/07/23 11:12:14;;;;;;;3.60;0.40;;;24.10;99.70;;;;;;5064478;28;20028;-87
2022/07/23 11:15:06;;;;;;;2.20;0.50;;;24.10;99.90;;;;;;5052410;28;20401;-88
2022/07/23 11:17:35;;;;;;;6.20;0.30;;;24.30;99.90;;;;;;5049080;28;20040;-84
2022/07/23 11:20:12;;;;;;;2.88;0.75;;;24.50;99.90;;;;;;5044487;28;20040;-84
2022/07/23 11:22:44;;;;;;;1.73;0.40;;;24.50;99.90;;;;;;5045653;28;20046;-84
2022/07/23 11:25:28;;;;;;;1.23;0.40;;;24.50;99.90;;;;;;5046716;28;20491;-84
2022/07/23 11:27:55;;;;;;;4.28;0.82;;;24.30;99.90;;;;;;5041268;28;20080;-84
2022/07/23 11:30:27;;;;;;;1.83;0.47;;;24.50;99.90;;;;;;5065832;28;20044;-84
2022/07/23 11:33:13;;;;;;;2.22;0.45;;;24.60;99.90;;;;;;5057211;28;20055;-84
2022/07/23 11:35:43;;;;;;;;;;;24.50;99.90;;;;;;5054593;28;20040;-84
2022/07/23 11:38:14;;;;;;;1.75;0.50;;;24.40;99.90;;;;;;5065793;28;19920;-84
2022/07/23 11:40:40;;;;;;;0.85;0.38;;;24.20;99.90;;;;;;5047844;28;20055;-84
2022/07/23 11:43:09;;;;;;;1.20;0.70;;;24.10;99.90;;;;;;5068152;28;20407;-84
2022/07/23 11:45:40;;;;;;;1.77;0.47;;;24.10;99.90;;;;;;5065264;28;20039;-84
2022/07/23 11:48:09;;;;;;;1.58;0.50;;;24.10;99.90;;;;;;5067165;28;20098;-84
2022/07/23 11:50:36;;;;;;;1.40;0.40;;;24.10;99.90;;;;;;5066441;28;20189;-84
2022/07/23 11:53:02;;;;;;;3.03;0.65;;;24.10;99.90;;;;;;5065813;28;20113;-84
2022/07/23 11:55:28;;;;;;;2.58;0.70;;;24.20;99.90;;;;;;5048969;28;20075;-84
2022/07/23 11:57:55;;;;;;;1.52;0.43;;;24.20;99.90;;;;;;5065090;28;20037;-84
2022/07/23 12:00:23;;;;;;;1.23;0.40;;;24.20;99.90;;;;;;5036028;28;20052;-83
2022/07/23 12:02:53;;;;;;;1.02;0.50;;;24.40;99.90;;;;;;5047398;28;20052;-84
2022/07/23 12:05:20;;;;;;;1.17;0.60;;;24.40;99.90;;;;;;5051270;28;20127;-84
2022/07/23 12:07:51;;;;;;;1.15;0.50;;;24.50;99.90;;;;;;5046510;28;20040;-85
2022/07/23 12:10:18;;;;;;;0.75;0.55;;;24.70;99.90;;;;;;5062778;28;20041;-84
2022/07/23 12:12:49;;;;;;;3.10;0.60;;;24.50;99.90;;;;;;5069453;28;20033;-85
2022/07/23 12:15:17;;;;;;;2.72;0.80;;;24.30;99.90;;;;;;5053884;28;20309;-84
2022/07/23 12:17:45;;;;;;;1.20;0.60;;;24.10;99.90;;;;;;5044761;28;20542;-84
2022/07/23 12:20:15;;;;;;;1.05;0.45;;;23.90;99.90;;;;;;5051487;28;20052;-84
2022/07/23 12:22:44;;;;;;;0.80;0.43;;;23.90;99.90;;;;;;5051379;28;20106;-84
2022/07/23 12:25:15;;;;;;;2.05;0.55;;;23.80;99.90;;;;;;5049843;28;20490;-84
2022/07/23 12:27:42;;;;;;;1.58;0.60;;;23.90;99.90;;;;;;5054837;28;20045;-84
2022/07/23 12:30:20;;;;;;;1.05;0.60;;;24.10;99.90;;;;;;5050789;28;20052;-84
2022/07/23 12:32:47;;;;;;;2.42;0.52;;;24.00;99.90;;;;;;5052627;28;20053;-84
2022/07/23 12:35:13;;;;;;;2.47;0.73;;;23.90;99.90;;;;;;5052170;28;20044;-84
2022/07/23 12:37:41;;;;;;;2.22;0.70;;;23.90;99.90;;;;;;5054346;28;20565;-84
2022/07/23 12:40:22;;;;;;;1.70;0.80;;;24.00;99.90;;;;;;5046418;28;20055;-84
2022/07/23 12:42:49;;;;;;;2.88;0.82;;;24.00;99.90;;;;;;5049191;28;20040;-84
2022/07/23 12:45:16;;;;;;;4.20;0.88;;;23.90;99.90;;;;;;5048784;28;20055;-84
2022/07/23 12:48:17;;;;;;;3.00;0.60;;;23.80;99.90;;;;;;5051413;28;20175;-84
2022/07/23 12:50:53;;;;;;;1.48;0.80;;;23.80;99.90;;;;;;5030813;28;20498;-84